AirNav   Air Wisconsin pilot careers
 
 632 users online  

0MO4 Bert Walter Berkowitz Heliport
Kansas City, Missouri, USA

GOING TO KANSAS CITY?


FAA INFORMATION EFFECTIVE 15 AUGUST 2019

Location

FAA Identifier: 0MO4
Lat/Long: 39-05-01.1600N 094-34-36.9100W
39-05.019333N 094-34.615167W
39.0836556,-94.5769194
(estimated)
Elevation: 890 ft. / 271 m (estimated)
Variation: 05E (1985)
Time zone: UTC -5 (UTC -6 during Standard Time)
Zip code: 64108

Heliport Operations

Heliport use: Private use. Permission required prior to landing
Activation date: 06/1991
Control tower: no
ARTCC: KANSAS CITY CENTER
FSS: COLUMBIA FLIGHT SERVICE STATION
Attendance: CONTINUOUS
Wind indicator: yes
Segmented circle: no
Lights: FOR FLOOD LGTS CALL 816-556-3133.

Heliport Communications

WX ASOS at MKC (2.5 nm N): PHONE 816-329-2843
WX ASOS at LXT (12 nm SE): 124.175 (816-347-9807)
WX ASOS at MCI (14 nm NW): PHONE 816-329-2808
WX ASOS at OJC (16 nm SW): PHONE 913-780-6969
WX AWOS-3 at GPH (19 nm NE): 120.275 (816-407-3399)

Nearby radio navigation aids

VOR radial/distance  VOR name  Freq  Var
MCIr143/14.2KANSAS CITY VORTAC113.2505E
ANXr261/20.9NAPOLEON VORTAC114.0007E

Heliport Services

Runway Information

Helipad H1

Dimensions: 18 x 18 ft. / 5 x 5 m
Surface: concrete
Runway edge lights: FLD
Latitude: 39-05.019333N
Longitude: 094-34.615167W
Elevation: 890.0 ft.
Traffic pattern: leftleft

Heliport Ownership and Management from official FAA records

Ownership: Publicly-owned
Owner: TRUMAN MEDICAL CENTER, INC.
2301 HOLMES
KANSAS CITY, MO 64108
Phone 816-556-3133
Manager: JACK L NICHOLS
2301 HOLMES
KANSAS CITY, MO 64108
Phone 816-556-3133

Additional Remarks

OWNER DESIRES HELIPAD NOT BE CHARTED.
FOR CD CTC KANSAS CITY APCH AT 816-329-2710.

Instrument Procedures

There are no published instrument procedures at 0MO4.

Some nearby airports with instrument procedures:

KMKC - Charles B Wheeler Downtown Airport (2 nm N)
KLXT - Lee's Summit Municipal Airport (12 nm SE)
KMCI - Kansas City International Airport (14 nm NW)
KOJC - Johnson County Executive Airport (16 nm SW)
3GV - East Kansas City Airport (17 nm E)
KGPH - Midwest National Air Center Airport (19 nm NE)
 
Loc | Ops | Rwys | IFR | FBO | Links
Com | Nav | Svcs | Stats | Notes

Kansas City Aviation Department
 
Area around 0MO4 (Bert Walter Berkowitz Heliport)
 
Road maps at: MapQuest Bing Google
 
Aerial photo
No photo
 
Sectional chart

 
Airport distance calculator
Flying to Bert Walter Berkowitz Heliport? Find the distance to fly.

From to 0MO4

Sunrise and sunset
Times for 17-Aug-2019
 Local
(UTC-5)
 Zulu
(UTC)
Morning civil twilight06:0611:06
Sunrise06:3411:34
Sunset20:1001:10
Evening civil twilight20:3901:39

Current date and time
Zulu (UTC)  17-Aug-2019 12:05:44
Local (UTC-5)  17-Aug-2019 07:05:44
 
METAR
KMKC 
2nm NW 
171154Z 00000KT 10SM -TSRA FEW040 BKN085 OVC110 22/17 A2995 RMK AO2 PK WND 02026/1126 LTG DSNT ALQDS TSB15E30B50 SLP134 P0008 60114 70114 T02170172 10244 20211 53012
KLXT 
12nm SE 
171153Z AUTO 30004KT 10SM VCTS -RA FEW090 BKN110 20/18 A3000 RMK AO2 LTG DSNT ALQDS TSE06 PRESRR SLP151 P0004 60055 70057 T02000183 10228 20200 53025
KMCI 
15nm NW 
171153Z 08007KT 7SM TSRA SCT050CB SCT080 OVC110 20/19 A2994 RMK AO2 LTG DSNT ALQDS TSB13E32B36 SLP127 TS OHD MOV E P0019 60066 70066 T02000194 10233 20194 50001 $
KOJC 
16nm SW 
171153Z 28005KT 2SM VCTS -RA BR FEW012 BKN042 OVC070 19/19 A3002 RMK AO2 LTG DSNT ALQDS RAB1054E09B32 TSB18E50 SLP156 TS N-SW MOV W P0053 60152 70152 T01890189 10217 20183 53026
KGPH 
19nm NE 
171135Z AUTO 02005KT 10SM -VCTSRA OVC060 20/18 A2993 RMK AO2 LTG DSNT ALQS
TAF
KMKC 
2nm NW 
171135Z 1712/1812 33006KT P6SM -TSRA FEW080CB BKN110 FM171400 15007KT P6SM BKN045 FM172000 19005KT P6SM SCT070 FM180200 18006KT P6SM VCTS SCT100CB
KMCI 
15nm NW 
171135Z 1712/1812 02006KT P6SM -RA VCTS SCT040CB OVC080 TEMPO 1712/1714 3SM -TSRA BKN040CB FM171400 15007KT P6SM BKN045 FM171800 18008KT P6SM SCT060 FM180200 17008KT P6SM VCTS SCT100CB
NOTAMs
Click for the latest NOTAMs
NOTAMs are issued by the DoD/FAA and will open in a separate window not controlled by AirNav.

 

 
 

Would you like to see your business listed on this page?

 If your business provides an interesting product or service to pilots, flight crews, aircraft, or users of the Bert Walter Berkowitz Heliport, you should consider listing it here.  To start the listing process, click on the button below
 
Add a business
 

Other Pages about Bert Walter Berkowitz Heliport

Update a link
 
Copyright © AirNav, LLC. All rights reserved. Privacy Policy  Contact